createdAt,value
2022-11-23T00:01:19.771Z,38.29
2022-11-23T00:03:54.402Z,37.93
2022-11-23T00:06:23.795Z,38.58
2022-11-23T00:08:52.796Z,38.80
2022-11-23T00:11:22.772Z,39.01
2022-11-23T00:13:51.251Z,38.65
2022-11-23T00:16:24.596Z,38.28
2022-11-23T00:18:55.785Z,37.93
2022-11-23T00:21:25.490Z,38.34
2022-11-23T00:23:53.764Z,38.67
2022-11-23T00:26:22.508Z,38.67
2022-11-23T00:28:50.647Z,38.90
2022-11-23T00:31:20.891Z,38.31
2022-11-23T00:33:52.627Z,37.98
2022-11-23T00:36:23.298Z,37.88
2022-11-23T00:38:54.331Z,38.36
2022-11-23T00:41:22.986Z,37.81
2022-11-23T00:43:51.146Z,39.18
2022-11-23T00:46:21.510Z,39.65
2022-11-23T00:48:51.055Z,38.67
2022-11-23T00:51:22.962Z,38.55
2022-11-23T00:53:51.625Z,39.09
2022-11-23T00:56:21.668Z,38.78
2022-11-23T00:58:50.777Z,39.07
2022-11-23T01:01:20.413Z,38.90
2022-11-23T01:03:50.360Z,39.06
2022-11-23T01:06:20.507Z,38.59
2022-11-23T01:08:52.137Z,38.72
2022-11-23T01:11:21.720Z,39.48
2022-11-23T01:13:50.123Z,38.88
2022-11-23T01:16:24.069Z,38.75
2022-11-23T01:18:54.484Z,39.19
2022-11-23T01:21:22.897Z,39.49
2022-11-23T01:23:53.088Z,40.00
2022-11-23T01:26:21.853Z,39.10
2022-11-23T01:28:50.590Z,38.67
2022-11-23T01:31:20.606Z,39.02
2022-11-23T01:33:48.748Z,38.99
2022-11-23T01:36:19.843Z,38.51
2022-11-23T01:38:48.811Z,38.58
2022-11-23T01:41:20.674Z,38.25
2022-11-23T01:43:49.183Z,38.14
2022-11-23T01:46:17.534Z,38.34
2022-11-23T01:48:48.089Z,38.16
2022-11-23T01:51:18.316Z,37.99
2022-11-23T01:53:47.560Z,38.35
2022-11-23T01:56:20.640Z,38.01
2022-11-23T01:58:51.921Z,38.30
2022-11-23T02:01:20.737Z,38.13
2022-11-23T02:03:49.821Z,38.25
2022-11-23T02:06:21.689Z,38.32
2022-11-23T02:08:50.277Z,38.48
2022-11-23T02:11:20.269Z,38.33
2022-11-23T02:13:50.344Z,37.67
2022-11-23T02:16:19.697Z,37.82
2022-11-23T02:18:50.019Z,38.71
2022-11-23T02:21:18.541Z,38.51
2022-11-23T02:23:53.937Z,38.27
2022-11-23T02:26:24.882Z,38.61
2022-11-23T02:28:57.347Z,38.22
2022-11-23T02:31:25.769Z,38.06
2022-11-23T02:33:53.966Z,38.52
2022-11-23T02:36:32.111Z,38.07
2022-11-23T02:39:01.268Z,38.39
2022-11-23T02:41:36.662Z,38.29
2022-11-23T02:44:05.554Z,38.84
2022-11-23T02:46:33.989Z,39.55
2022-11-23T02:49:02.212Z,38.74
2022-11-23T02:51:31.002Z,38.31
2022-11-23T02:53:59.386Z,38.63
2022-11-23T02:56:27.866Z,38.53
2022-11-23T02:58:57.351Z,38.45
2022-11-23T03:01:26.044Z,38.25
2022-11-23T03:03:54.138Z,37.99
2022-11-23T03:06:22.464Z,38.16
2022-11-23T03:08:50.716Z,38.17
2022-11-23T03:11:19.175Z,39.26
2022-11-23T03:13:47.267Z,39.69
2022-11-23T03:16:17.662Z,39.29
2022-11-23T03:18:45.716Z,38.77
2022-11-23T03:21:14.120Z,38.54
2022-11-23T03:23:42.270Z,38.46
2022-11-23T03:26:13.193Z,38.86
2022-11-23T03:28:41.707Z,38.57
2022-11-23T03:31:10.246Z,38.91
2022-11-23T03:33:39.889Z,38.71
2022-11-23T03:36:09.230Z,39.52
2022-11-23T03:38:37.346Z,38.89
2022-11-23T03:41:05.923Z,38.56
2022-11-23T03:43:34.044Z,38.72
2022-11-23T03:46:02.481Z,38.63
2022-11-23T03:48:30.934Z,38.00
2022-11-23T03:51:00.675Z,37.77
2022-11-23T03:53:28.914Z,37.87
2022-11-23T03:55:58.496Z,38.35
2022-11-23T03:58:27.031Z,38.18
2022-11-23T04:00:55.793Z,38.11
2022-11-23T04:03:24.073Z,37.98
2022-11-23T04:05:52.416Z,37.69
2022-11-23T04:08:22.173Z,37.45
2022-11-23T04:10:50.507Z,37.56
2022-11-23T04:13:18.847Z,37.39
2022-11-23T04:15:47.228Z,37.49
2022-11-23T04:18:15.404Z,37.70
2022-11-23T04:20:43.865Z,37.46
2022-11-23T04:23:13.686Z,37.26
2022-11-23T04:25:43.572Z,37.63
2022-11-23T04:28:11.725Z,37.48
2022-11-23T04:30:40.279Z,37.45
2022-11-23T04:33:08.392Z,37.76
2022-11-23T04:35:37.745Z,37.38
2022-11-23T04:38:05.851Z,37.65
2022-11-23T04:40:34.359Z,37.51
2022-11-23T04:43:04.214Z,37.42
2022-11-23T04:45:32.593Z,37.77
2022-11-23T04:48:00.826Z,37.68
2022-11-23T04:50:29.316Z,37.53
2022-11-23T04:52:57.571Z,37.70
2022-11-23T04:55:26.003Z,37.73
2022-11-23T04:57:54.146Z,37.56
2022-11-23T05:00:24.301Z,37.31
2022-11-23T05:02:52.639Z,37.99
2022-11-23T05:05:21.498Z,38.06
2022-11-23T05:07:49.812Z,38.33
2022-11-23T05:10:18.615Z,38.46
2022-11-23T05:12:47.043Z,38.13
2022-11-23T05:15:15.912Z,37.90
2022-11-23T05:17:45.467Z,37.70
2022-11-23T05:20:14.262Z,37.79
2022-11-23T05:22:42.700Z,37.73
2022-11-23T05:25:11.526Z,38.24
2022-11-23T05:27:39.567Z,38.29
2022-11-23T05:30:09.419Z,38.30
2022-11-23T05:32:37.535Z,38.08
2022-11-23T05:35:08.860Z,37.75
2022-11-23T05:37:37.228Z,38.07
2022-11-23T05:40:06.675Z,38.05
2022-11-23T05:42:34.980Z,37.90
2022-11-23T05:45:07.374Z,37.66
2022-11-23T05:47:38.328Z,37.43
2022-11-23T05:50:10.101Z,37.24
2022-11-23T05:52:40.668Z,37.43
2022-11-23T05:55:09.510Z,37.07
2022-11-23T05:57:37.618Z,37.20
2022-11-23T06:00:07.855Z,36.93
2022-11-23T06:02:40.902Z,36.89
2022-11-23T06:05:11.826Z,36.76
2022-11-23T06:07:40.017Z,36.72
2022-11-23T06:10:09.508Z,36.86
2022-11-23T06:12:38.807Z,36.55
2022-11-23T06:15:08.820Z,36.11
2022-11-23T06:17:37.148Z,36.47
2022-11-23T06:20:07.327Z,36.41
2022-11-23T06:22:36.818Z,36.66
2022-11-23T06:25:05.678Z,36.62
2022-11-23T06:27:33.798Z,36.96
2022-11-23T06:30:02.303Z,37.31
2022-11-23T06:32:30.483Z,37.48
2022-11-23T06:35:00.955Z,37.00
2022-11-23T06:37:29.767Z,37.03
2022-11-23T06:39:59.535Z,36.77
2022-11-23T06:42:43.076Z,37.01
2022-11-23T06:45:12.212Z,36.89
2022-11-23T06:47:40.524Z,36.84
2022-11-23T06:50:09.948Z,36.88
2022-11-23T06:52:38.253Z,37.03
2022-11-23T06:55:08.844Z,36.61
2022-11-23T06:57:37.033Z,36.97
2022-11-23T07:00:06.523Z,36.89
2022-11-23T07:02:34.642Z,37.17
2022-11-23T07:05:03.210Z,37.11
2022-11-23T07:07:31.421Z,36.89
2022-11-23T07:10:05.444Z,37.42
2022-11-23T07:12:36.641Z,37.33
2022-11-23T07:15:05.756Z,37.64
2022-11-23T07:17:34.108Z,37.48
2022-11-23T07:20:02.627Z,37.70
2022-11-23T07:22:30.808Z,38.08
2022-11-23T07:24:59.844Z,37.77
2022-11-23T07:27:28.289Z,38.08
2022-11-23T07:29:58.108Z,37.68
2022-11-23T07:32:26.328Z,37.63
2022-11-23T07:34:54.814Z,38.00
2022-11-23T07:37:23.067Z,38.03
2022-11-23T07:39:57.721Z,37.97
2022-11-23T07:42:37.191Z,38.17
2022-11-23T07:45:12.923Z,37.63
2022-11-23T07:47:41.404Z,37.57
2022-11-23T07:50:11.872Z,38.36
2022-11-23T07:52:40.859Z,38.37
2022-11-23T07:55:10.262Z,38.71
2022-11-23T07:57:38.501Z,38.42
2022-11-23T08:00:08.588Z,37.76
2022-11-23T08:02:38.293Z,37.70
2022-11-23T08:05:13.880Z,37.24
2022-11-23T08:07:43.122Z,36.60
2022-11-23T08:10:12.423Z,36.51
2022-11-23T08:12:40.643Z,36.54
2022-11-23T08:15:09.929Z,36.51
2022-11-23T08:17:39.568Z,36.01
2022-11-23T08:20:09.035Z,36.04
2022-11-23T08:22:37.194Z,35.62
2022-11-23T08:25:06.588Z,35.01
2022-11-23T08:27:34.820Z,34.92
2022-11-23T08:30:03.346Z,35.39
2022-11-23T08:32:31.538Z,35.03
2022-11-23T08:35:01.394Z,34.92
2022-11-23T08:37:29.593Z,35.22
2022-11-23T08:39:58.217Z,35.51
2022-11-23T08:42:26.559Z,36.01
2022-11-23T08:44:55.218Z,35.48
2022-11-23T08:47:23.360Z,35.14
2022-11-23T08:49:52.028Z,34.66
2022-11-23T08:52:21.860Z,35.10
2022-11-23T08:54:50.675Z,34.66
2022-11-23T08:57:19.010Z,34.22
2022-11-23T08:59:47.385Z,34.03
2022-11-23T09:02:15.831Z,34.04
2022-11-23T09:04:44.415Z,34.11
2022-11-23T09:07:12.912Z,34.44
2022-11-23T09:09:42.885Z,34.40
2022-11-23T09:12:11.060Z,34.74
2022-11-23T09:14:39.526Z,34.24
2022-11-23T09:17:07.836Z,34.07
2022-11-23T09:19:36.733Z,33.81
2022-11-23T09:22:04.809Z,34.48
2022-11-23T09:24:33.764Z,34.79
2022-11-23T09:27:03.548Z,34.06
2022-11-23T09:29:31.929Z,33.94
2022-11-23T09:32:00.082Z,33.56
2022-11-23T09:34:28.518Z,34.19
2022-11-23T09:36:58.168Z,34.10
2022-11-23T09:39:26.663Z,34.76
2022-11-23T09:42:41.646Z,33.15
2022-11-23T09:45:17.975Z,34.05
2022-11-23T09:48:04.139Z,33.33
2022-11-23T09:50:40.233Z,33.29
2022-11-23T09:53:13.794Z,32.63
2022-11-23T09:55:44.322Z,32.39
2022-11-23T09:58:17.600Z,32.56
2022-11-23T10:00:49.020Z,32.26
2022-11-23T10:03:18.618Z,32.94
2022-11-23T10:05:55.410Z,33.05
2022-11-23T10:08:36.053Z,32.20
2022-11-23T10:11:15.135Z,31.95
2022-11-23T10:13:47.159Z,32.60
2022-11-23T10:16:29.434Z,32.09
2022-11-23T10:19:01.855Z,32.45
2022-11-23T10:21:37.139Z,31.92
2022-11-23T10:24:13.822Z,32.15
2022-11-23T10:26:44.167Z,32.75
2022-11-23T10:29:15.901Z,32.22
2022-11-23T10:31:48.911Z,32.36
2022-11-23T10:34:26.013Z,32.47
2022-11-23T10:36:57.211Z,32.22
2022-11-23T10:39:27.480Z,32.14
2022-11-23T10:42:01.440Z,31.72
2022-11-23T10:44:37.268Z,32.43
2022-11-23T10:47:06.344Z,33.57
2022-11-23T10:49:35.879Z,33.04
2022-11-23T10:52:06.355Z,33.31
2022-11-23T10:54:36.979Z,33.29
2022-11-23T10:57:22.899Z,31.80
2022-11-23T11:00:00.601Z,32.11
2022-11-23T11:02:30.985Z,31.91
2022-11-23T11:05:25.243Z,31.92
2022-11-23T11:08:15.197Z,31.70
2022-11-23T11:10:44.998Z,32.89
2022-11-23T11:13:25.051Z,32.92
2022-11-23T11:15:56.571Z,32.92
2022-11-23T11:18:28.963Z,32.36
2022-11-23T11:21:00.134Z,32.07
2022-11-23T11:23:30.363Z,31.58
2022-11-23T11:26:21.545Z,31.00
2022-11-23T11:28:52.335Z,31.75
2022-11-23T11:31:42.859Z,31.53
2022-11-23T11:34:19.338Z,32.53
2022-11-23T11:36:54.159Z,32.68
2022-11-23T11:39:27.353Z,33.00
2022-11-23T11:41:57.427Z,32.72
2022-11-23T11:44:27.421Z,32.41
2022-11-23T11:47:00.559Z,31.64
2022-11-23T11:49:32.327Z,31.34
2022-11-23T11:52:01.367Z,30.38
2022-11-23T11:54:33.708Z,31.48
2022-11-23T11:57:05.782Z,32.08
2022-11-23T11:59:43.054Z,32.66
2022-11-23T12:02:20.997Z,33.23
2022-11-23T12:05:05.206Z,33.02
2022-11-23T12:07:34.976Z,33.29
2022-11-23T12:10:08.254Z,33.21
2022-11-23T12:12:37.809Z,32.25
2022-11-23T12:15:20.521Z,32.44
2022-11-23T12:18:25.874Z,32.36
2022-11-23T12:20:59.187Z,32.45
2022-11-23T12:23:35.903Z,32.06
2022-11-23T12:26:14.816Z,32.21
2022-11-23T12:29:03.407Z,31.87
2022-11-23T12:31:40.775Z,32.62
2022-11-23T12:34:17.762Z,33.87
2022-11-23T12:37:09.353Z,33.04
2022-11-23T12:40:05.328Z,33.12
2022-11-23T12:42:40.333Z,33.11
2022-11-23T12:45:19.403Z,33.77
2022-11-23T12:47:52.634Z,34.21
2022-11-23T12:50:31.541Z,33.43
2022-11-23T12:53:04.734Z,32.96
2022-11-23T12:55:40.224Z,32.77
2022-11-23T12:58:14.100Z,32.64
2022-11-23T13:00:46.862Z,33.53
2022-11-23T13:03:43.047Z,34.51
2022-11-23T13:10:24.646Z,34.58
2022-11-23T13:13:18.019Z,34.44
2022-11-23T13:16:17.176Z,34.17
2022-11-23T13:18:58.774Z,34.59
2022-11-23T13:21:32.541Z,35.11
2022-11-23T13:24:00.864Z,34.73
2022-11-23T13:26:31.685Z,34.50
2022-11-23T13:29:01.502Z,35.23
2022-11-23T13:31:31.281Z,34.92
2022-11-23T13:34:01.350Z,34.14
2022-11-23T13:40:06.409Z,34.00
2022-11-23T13:42:36.684Z,34.74
2022-11-23T13:45:30.493Z,34.47
2022-11-23T13:48:41.700Z,34.10
2022-11-23T13:51:07.178Z,34.02
2022-11-23T13:53:36.977Z,34.16
2022-11-23T13:56:23.524Z,33.76
2022-11-23T13:58:54.869Z,34.97
2022-11-23T14:02:00.931Z,33.56
2022-11-23T14:04:30.640Z,34.84
2022-11-23T14:07:03.340Z,35.33
2022-11-23T14:09:36.822Z,34.56
2022-11-23T14:12:09.748Z,35.24
2022-11-23T14:14:48.705Z,36.01
2022-11-23T14:17:55.804Z,35.73
2022-11-23T14:20:51.879Z,34.97
2022-11-23T14:23:46.553Z,35.04
2022-11-23T14:26:23.144Z,36.15
2022-11-23T14:29:00.757Z,35.18
2022-11-23T14:31:39.280Z,34.99
2022-11-23T14:34:18.077Z,35.42
2022-11-23T14:36:52.721Z,35.48
2022-11-23T14:39:50.365Z,35.53
2022-11-23T14:42:20.790Z,35.36
2022-11-23T14:44:50.873Z,36.86
2022-11-23T14:47:30.004Z,35.33
2022-11-23T14:49:59.185Z,35.81
2022-11-23T14:52:29.257Z,36.20
2022-11-23T14:54:59.398Z,36.28
2022-11-23T14:57:30.476Z,35.31
2022-11-23T15:00:00.737Z,35.45
2022-11-23T15:02:35.451Z,35.69
2022-11-23T15:05:08.901Z,35.69
2022-11-23T15:07:45.135Z,35.20
2022-11-23T15:10:28.068Z,35.85
2022-11-23T15:12:56.586Z,37.27
2022-11-23T15:15:26.967Z,36.62
2022-11-23T15:17:58.376Z,35.91
2022-11-23T15:20:30.066Z,35.48
2022-11-23T15:22:58.849Z,35.46
2022-11-23T15:25:27.786Z,35.91
2022-11-23T15:27:56.371Z,35.37
2022-11-23T15:30:30.080Z,34.64
2022-11-23T15:33:01.944Z,34.42
2022-11-23T15:35:32.983Z,35.84
2022-11-23T15:38:01.856Z,35.04
2022-11-23T15:40:31.762Z,36.17
2022-11-23T15:43:00.446Z,35.83
2022-11-23T15:45:36.751Z,35.71
2022-11-23T15:48:08.140Z,35.65
2022-11-23T15:50:37.978Z,36.23
2022-11-23T15:53:08.279Z,37.01
2022-11-23T15:55:36.551Z,36.47
2022-11-23T15:58:07.838Z,35.64
2022-11-23T16:00:36.461Z,35.61
2022-11-23T16:03:32.735Z,35.22
2022-11-23T16:06:17.738Z,34.94
2022-11-23T16:08:46.890Z,35.90
2022-11-23T16:11:30.389Z,35.45
2022-11-23T16:14:16.248Z,35.26
2022-11-23T16:16:46.442Z,35.94
2022-11-23T16:19:25.672Z,36.18
2022-11-23T16:22:01.785Z,36.44
2022-11-23T16:24:32.299Z,35.79
2022-11-23T16:27:01.050Z,36.52
2022-11-23T16:29:33.882Z,35.94
2022-11-23T16:32:04.241Z,36.26
2022-11-23T16:34:35.017Z,35.91
2022-11-23T16:37:04.639Z,36.74
2022-11-23T16:39:33.251Z,36.75
2022-11-23T16:42:01.415Z,36.53
2022-11-23T16:44:36.132Z,36.13
2022-11-23T16:47:28.586Z,35.65
2022-11-23T16:49:58.912Z,35.91
2022-11-23T16:52:27.176Z,35.82
2022-11-23T16:54:55.789Z,36.57
2022-11-23T16:57:29.285Z,35.57
2022-11-23T16:59:58.564Z,35.88
2022-11-23T17:02:26.802Z,35.80
2022-11-23T17:04:56.199Z,35.67
2022-11-23T17:07:25.807Z,35.73
2022-11-23T17:09:54.206Z,36.81
2022-11-23T17:12:22.377Z,35.96
2022-11-23T17:14:51.656Z,36.06
2022-11-23T17:17:22.504Z,37.29
2022-11-23T17:19:51.793Z,37.42
2022-11-23T17:22:20.637Z,36.55
2022-11-23T17:24:52.860Z,35.54
2022-11-23T17:27:24.142Z,35.79
2022-11-23T17:29:57.236Z,35.68
2022-11-23T17:32:25.322Z,37.59
2022-11-23T17:34:53.768Z,37.11
2022-11-23T17:37:23.919Z,36.20
2022-11-23T17:39:55.018Z,36.25
2022-11-23T17:42:23.544Z,35.95
2022-11-23T17:44:52.140Z,35.63
2022-11-23T17:47:25.684Z,36.12
2022-11-23T17:49:54.205Z,36.66
2022-11-23T17:52:22.670Z,35.89
2022-11-23T17:54:51.370Z,35.62
2022-11-23T17:57:24.219Z,35.11
2022-11-23T17:59:53.305Z,35.99
2022-11-23T18:02:21.748Z,35.65
2022-11-23T18:04:50.264Z,35.32
2022-11-23T18:07:18.715Z,35.97
2022-11-23T18:09:47.819Z,35.90
2022-11-23T18:12:16.026Z,35.90
2022-11-23T18:14:45.891Z,35.62
2022-11-23T18:17:15.716Z,36.59
2022-11-23T18:19:44.136Z,36.87
2022-11-23T18:22:12.231Z,37.08
2022-11-23T18:24:40.659Z,36.82
2022-11-23T18:27:08.806Z,35.80
2022-11-23T18:29:37.881Z,36.58
2022-11-23T18:32:08.444Z,36.77
2022-11-23T18:34:37.031Z,36.33
2022-11-23T18:37:05.245Z,36.91
2022-11-23T18:39:34.027Z,36.20
2022-11-23T18:42:05.786Z,37.11
2022-11-23T18:44:35.082Z,36.15
2022-11-23T18:47:03.341Z,36.17
2022-11-23T18:49:33.428Z,35.45
2022-11-23T18:52:01.810Z,35.89
2022-11-23T18:54:30.280Z,36.23
2022-11-23T18:56:58.628Z,35.30
2022-11-23T18:59:57.620Z,35.10
2022-11-23T19:02:15.629Z,35.57
2022-11-23T19:04:45.384Z,35.89
2022-11-23T19:07:13.587Z,35.78
2022-11-23T19:09:42.301Z,35.91
2022-11-23T19:12:10.702Z,35.79
2022-11-23T19:14:39.142Z,36.97
2022-11-23T19:17:07.415Z,36.85
2022-11-23T19:19:36.140Z,36.80
2022-11-23T19:22:05.762Z,36.68
2022-11-23T19:24:34.246Z,37.93
2022-11-23T19:27:02.544Z,37.52
2022-11-23T19:29:30.978Z,37.04
2022-11-23T19:31:59.213Z,36.70
2022-11-23T19:34:27.692Z,35.82
2022-11-23T19:36:55.916Z,35.88
2022-11-23T19:39:25.923Z,36.26
2022-11-23T19:41:54.293Z,36.81
2022-11-23T19:44:22.741Z,36.99
2022-11-23T19:46:51.071Z,36.35
2022-11-23T19:49:21.192Z,36.60
2022-11-23T19:51:52.335Z,36.65
2022-11-23T19:54:21.085Z,36.42
2022-11-23T19:56:52.427Z,35.55
2022-11-23T19:59:21.005Z,35.43
2022-11-23T20:01:49.399Z,35.20
2022-11-23T20:04:18.044Z,36.75
2022-11-23T20:06:46.351Z,36.06
2022-11-23T20:09:19.378Z,36.31
2022-11-23T20:11:51.008Z,35.70
2022-11-23T20:14:21.978Z,35.97
2022-11-23T20:16:50.150Z,36.01
2022-11-23T20:19:18.629Z,35.61
2022-11-23T20:21:46.793Z,35.40
2022-11-23T20:24:15.585Z,35.86
2022-11-23T20:26:44.177Z,34.99
2022-11-23T20:29:13.911Z,35.40
2022-11-23T20:31:43.578Z,35.80
2022-11-23T20:34:16.677Z,35.74
2022-11-23T20:36:46.914Z,35.51
2022-11-23T20:39:16.306Z,35.72
2022-11-23T20:41:45.157Z,36.29
2022-11-23T20:44:14.961Z,36.43
2022-11-23T20:47:01.117Z,36.10
2022-11-23T20:49:31.100Z,36.50
2022-11-23T20:51:59.925Z,35.72
2022-11-23T20:54:29.331Z,35.45
2022-11-23T20:57:00.139Z,36.17
2022-11-23T20:59:28.955Z,34.57
2022-11-23T21:01:58.453Z,35.09
2022-11-23T21:04:27.393Z,35.38
2022-11-23T21:06:55.777Z,36.20
2022-11-23T21:09:24.320Z,36.73
2022-11-23T21:12:10.046Z,35.82
2022-11-23T21:14:38.635Z,36.21
2022-11-23T21:17:08.225Z,35.99
2022-11-23T21:19:38.049Z,36.39
2022-11-23T21:22:08.096Z,35.74
2022-11-23T21:24:37.043Z,36.34
2022-11-23T21:27:07.310Z,36.19
2022-11-23T21:29:35.866Z,36.20
2022-11-23T21:32:04.174Z,36.20
2022-11-23T21:34:34.623Z,35.59
2022-11-23T21:37:03.116Z,35.98
2022-11-23T21:39:33.176Z,36.21
2022-11-23T21:42:01.453Z,35.95
2022-11-23T21:44:30.185Z,35.79
2022-11-23T21:47:00.978Z,35.71
2022-11-23T21:49:29.957Z,35.77
2022-11-23T21:51:59.507Z,35.84
2022-11-23T21:54:28.096Z,36.75
2022-11-23T21:56:56.199Z,35.73
2022-11-23T21:59:24.901Z,35.76
2022-11-23T22:01:54.607Z,35.83
2022-11-23T22:04:23.161Z,35.75
2022-11-23T22:06:51.816Z,36.74
2022-11-23T22:09:21.833Z,36.37
2022-11-23T22:11:50.108Z,36.52
2022-11-23T22:14:19.957Z,36.79
2022-11-23T22:16:50.142Z,36.22
2022-11-23T22:19:20.943Z,36.14
2022-11-23T22:21:49.212Z,36.14
2022-11-23T22:24:19.747Z,36.60
2022-11-23T22:26:49.633Z,36.33
2022-11-23T22:29:18.192Z,36.60
2022-11-23T22:31:46.675Z,36.21
2022-11-23T22:34:15.643Z,35.87
2022-11-23T22:36:44.007Z,36.01
2022-11-23T22:39:12.896Z,36.04
2022-11-23T22:41:41.375Z,35.53
2022-11-23T22:44:11.942Z,35.17
2022-11-23T22:46:40.980Z,35.29
2022-11-23T22:49:09.740Z,35.18
2022-11-23T22:51:38.175Z,35.37
2022-11-23T22:54:06.885Z,35.37
2022-11-23T22:56:35.381Z,35.33
2022-11-23T22:59:04.458Z,35.36
2022-11-23T23:01:34.185Z,35.50
2022-11-23T23:04:04.309Z,35.61
2022-11-23T23:06:35.092Z,35.32
2022-11-23T23:09:05.874Z,35.11
2022-11-23T23:11:35.190Z,35.17
2022-11-23T23:14:03.978Z,35.26
2022-11-23T23:16:33.647Z,35.19
2022-11-23T23:19:03.652Z,35.13
2022-11-23T23:21:32.157Z,35.07
2022-11-23T23:24:02.403Z,35.03
2022-11-23T23:26:30.837Z,34.86
2022-11-23T23:29:01.139Z,35.15
2022-11-23T23:31:30.671Z,35.03
2022-11-23T23:34:01.657Z,34.67
2022-11-23T23:36:30.817Z,34.45
2022-11-23T23:38:59.644Z,34.44
2022-11-23T23:41:27.861Z,34.51
2022-11-23T23:43:56.539Z,34.45
2022-11-23T23:46:24.843Z,34.49
2022-11-23T23:48:53.367Z,34.53
2022-11-23T23:51:24.460Z,34.23
2022-11-23T23:53:52.929Z,32.91
2022-11-23T23:56:22.722Z,34.15
2022-11-23T23:58:51.360Z,34.27
